createdAt,value
2022-10-18T00:00:12.405Z,56.67
2022-10-18T00:01:14.159Z,57.01
2022-10-18T00:02:15.827Z,56.77
2022-10-18T00:03:17.472Z,56.67
2022-10-18T00:04:19.022Z,56.02
2022-10-18T00:05:20.577Z,56.22
2022-10-18T00:06:22.150Z,55.60
2022-10-18T00:07:23.755Z,55.85
2022-10-18T00:08:26.390Z,55.52
2022-10-18T00:09:27.915Z,55.73
2022-10-18T00:10:29.456Z,55.26
2022-10-18T00:11:31.017Z,55.02
2022-10-18T00:12:37.339Z,55.10
2022-10-18T00:13:39.117Z,55.85
2022-10-18T00:14:40.692Z,57.05
2022-10-18T00:16:12.980Z,57.19
2022-10-18T00:17:14.530Z,57.76
2022-10-18T00:18:16.045Z,57.71
2022-10-18T00:19:17.570Z,57.49
2022-10-18T00:20:19.656Z,57.78
2022-10-18T00:21:22.970Z,57.73
2022-10-18T00:22:25.409Z,57.12
2022-10-18T00:23:28.437Z,56.73
2022-10-18T00:24:29.987Z,56.70
2022-10-18T00:25:31.499Z,56.78
2022-10-18T00:26:33.132Z,55.69
2022-10-18T00:27:35.308Z,55.99
2022-10-18T00:28:39.074Z,55.79
2022-10-18T00:29:40.715Z,55.54
2022-10-18T00:30:42.291Z,55.06
2022-10-18T00:31:44.433Z,55.12
2022-10-18T00:32:45.967Z,54.65
2022-10-18T00:33:50.992Z,55.22
2022-10-18T00:34:52.762Z,55.12
2022-10-18T00:35:54.346Z,54.44
2022-10-18T00:36:56.001Z,54.76
2022-10-18T00:37:57.533Z,54.76
2022-10-18T00:38:59.047Z,55.13
2022-10-18T00:40:00.614Z,54.75
2022-10-18T00:41:03.101Z,55.10
2022-10-18T00:42:04.879Z,55.59
2022-10-18T00:43:06.406Z,55.46
2022-10-18T00:44:27.847Z,55.37
2022-10-18T00:45:29.578Z,54.39
2022-10-18T00:46:33.953Z,55.01
2022-10-18T00:47:35.861Z,54.88
2022-10-18T00:48:37.630Z,54.88
2022-10-18T00:49:43.912Z,54.54
2022-10-18T00:50:46.590Z,55.15
2022-10-18T00:52:00.781Z,55.34
2022-10-18T00:53:07.012Z,55.15
2022-10-18T00:54:08.624Z,55.19
2022-10-18T00:55:10.842Z,55.54
2022-10-18T00:56:13.667Z,55.25
2022-10-18T00:57:15.813Z,55.48
2022-10-18T00:58:19.266Z,54.92
2022-10-18T00:59:21.256Z,55.33
2022-10-18T01:00:23.086Z,54.92
2022-10-18T01:01:27.608Z,54.19
2022-10-18T01:02:32.120Z,54.51
2022-10-18T01:03:35.389Z,55.34
2022-10-18T01:04:37.126Z,54.66
2022-10-18T01:05:44.218Z,55.70
2022-10-18T01:07:08.759Z,55.42
2022-10-18T01:08:19.259Z,55.92
2022-10-18T01:09:30.739Z,56.89
2022-10-18T01:10:48.383Z,56.28
2022-10-18T01:12:08.513Z,56.00
2022-10-18T01:13:57.665Z,56.51
2022-10-18T01:15:06.268Z,56.16
2022-10-18T01:16:17.187Z,55.99
2022-10-18T01:17:32.805Z,56.12
2022-10-18T01:18:37.471Z,56.65
2022-10-18T01:20:03.404Z,56.24
2022-10-18T01:21:22.430Z,55.65
2022-10-18T01:22:28.994Z,56.19
2022-10-18T01:24:05.446Z,55.69
2022-10-18T01:25:07.098Z,56.81
2022-10-18T01:26:35.047Z,56.92
2022-10-18T01:27:59.442Z,57.52
2022-10-18T01:29:17.146Z,58.39
2022-10-18T01:30:48.319Z,58.52
2022-10-18T01:32:06.334Z,58.69
2022-10-18T01:33:10.482Z,58.51
2022-10-18T01:34:16.941Z,59.09
2022-10-18T01:35:25.395Z,59.18
2022-10-18T01:36:34.912Z,60.36
2022-10-18T01:37:38.677Z,60.55
2022-10-18T01:38:42.908Z,59.92
2022-10-18T01:39:47.269Z,59.42
2022-10-18T01:40:50.690Z,59.26
2022-10-18T01:41:54.406Z,59.40
2022-10-18T01:42:56.046Z,59.60
2022-10-18T01:44:02.176Z,59.95
2022-10-18T01:45:04.618Z,58.87
2022-10-18T01:46:08.635Z,59.70
2022-10-18T01:47:13.079Z,60.09
2022-10-18T01:48:16.365Z,60.93
2022-10-18T01:49:17.879Z,60.51
2022-10-18T01:50:29.437Z,60.86
2022-10-18T01:51:33.043Z,60.74
2022-10-18T01:52:34.998Z,60.83
2022-10-18T01:53:36.654Z,61.08
2022-10-18T01:54:42.265Z,61.90
2022-10-18T01:55:51.184Z,61.09
2022-10-18T01:57:00.392Z,61.46
2022-10-18T01:58:39.541Z,62.52
2022-10-18T01:59:59.307Z,62.42
2022-10-18T02:02:39.900Z,62.95
2022-10-18T02:03:44.565Z,63.17
2022-10-18T02:05:06.747Z,62.42
2022-10-18T02:06:18.948Z,62.12
2022-10-18T02:07:37.199Z,62.05
2022-10-18T02:08:44.701Z,62.40
2022-10-18T02:09:55.676Z,62.09
2022-10-18T02:11:02.686Z,61.64
2022-10-18T02:12:06.371Z,61.88
2022-10-18T02:13:10.858Z,61.79
2022-10-18T02:14:16.479Z,61.77
2022-10-18T02:15:23.789Z,61.86
2022-10-18T02:16:37.832Z,61.74
2022-10-18T02:17:40.734Z,60.94
2022-10-18T02:19:05.835Z,61.42
2022-10-18T02:20:10.170Z,61.61
2022-10-18T02:21:15.885Z,61.48
2022-10-18T02:22:18.533Z,61.34
2022-10-18T02:23:24.047Z,61.93
2022-10-18T02:24:34.439Z,61.42
2022-10-18T02:25:36.941Z,61.65
2022-10-18T02:26:38.837Z,61.44
2022-10-18T02:27:40.436Z,61.06
2022-10-18T02:28:42.603Z,61.59
2022-10-18T02:29:45.214Z,61.25
2022-10-18T02:30:53.208Z,60.79
2022-10-18T02:32:31.540Z,60.79
2022-10-18T02:33:45.405Z,60.48
2022-10-18T02:34:57.169Z,60.26
2022-10-18T02:36:10.516Z,60.37
2022-10-18T02:37:14.479Z,60.14
2022-10-18T02:38:18.845Z,60.65
2022-10-18T02:39:35.796Z,60.18
2022-10-18T02:40:37.647Z,60.74
2022-10-18T02:41:39.266Z,61.11
2022-10-18T02:42:50.918Z,60.64
2022-10-18T02:43:53.054Z,61.18
2022-10-18T02:44:54.641Z,61.71
2022-10-18T02:45:56.222Z,61.72
2022-10-18T02:46:57.733Z,61.84
2022-10-18T02:47:59.284Z,61.53
2022-10-18T02:49:00.826Z,61.24
2022-10-18T02:50:02.376Z,61.44
2022-10-18T02:51:03.995Z,60.98
2022-10-18T02:52:05.540Z,61.14
2022-10-18T02:53:07.036Z,61.06
2022-10-18T02:54:08.655Z,61.16
2022-10-18T02:55:10.855Z,61.55
2022-10-18T02:56:12.444Z,61.03
2022-10-18T02:57:14.008Z,61.53
2022-10-18T02:58:15.528Z,61.27
2022-10-18T02:59:17.073Z,61.28
2022-10-18T03:00:18.698Z,60.75
2022-10-18T03:01:20.271Z,60.93
2022-10-18T03:02:21.847Z,61.74
2022-10-18T03:03:23.385Z,61.71
2022-10-18T03:04:24.941Z,61.31
2022-10-18T03:05:26.502Z,61.71
2022-10-18T03:06:28.597Z,61.56
2022-10-18T03:07:30.657Z,62.23
2022-10-18T03:08:32.531Z,63.30
2022-10-18T03:09:34.056Z,63.40
2022-10-18T03:10:35.585Z,63.95
2022-10-18T03:11:37.235Z,64.59
2022-10-18T03:12:38.817Z,64.82
2022-10-18T03:13:40.352Z,65.37
2022-10-18T03:14:41.872Z,65.52
2022-10-18T03:15:43.404Z,66.00
2022-10-18T03:16:44.949Z,65.94
2022-10-18T03:17:46.518Z,65.65
2022-10-18T03:18:48.034Z,65.33
2022-10-18T03:19:49.659Z,65.56
2022-10-18T03:20:51.171Z,64.82
2022-10-18T03:21:52.789Z,64.20
2022-10-18T03:22:54.320Z,63.61
2022-10-18T03:23:56.228Z,63.27
2022-10-18T03:24:57.737Z,62.93
2022-10-18T03:25:59.242Z,63.03
2022-10-18T03:27:00.907Z,63.53
2022-10-18T03:28:02.557Z,63.14
2022-10-18T03:29:04.161Z,63.21
2022-10-18T03:30:06.159Z,62.76
2022-10-18T03:31:07.671Z,63.22
2022-10-18T03:32:09.179Z,63.23
2022-10-18T03:33:10.699Z,63.43
2022-10-18T03:34:12.235Z,63.61
2022-10-18T03:35:13.746Z,63.44
2022-10-18T03:36:15.414Z,63.12
2022-10-18T03:37:17.033Z,63.16
2022-10-18T03:38:19.161Z,63.44
2022-10-18T03:39:20.878Z,62.66
2022-10-18T03:40:23.181Z,62.99
2022-10-18T03:41:24.812Z,62.84
2022-10-18T03:42:26.382Z,62.30
2022-10-18T03:43:27.945Z,61.83
2022-10-18T03:44:29.553Z,62.35
2022-10-18T03:45:31.652Z,62.41
2022-10-18T03:46:33.370Z,61.43
2022-10-18T03:47:34.977Z,62.27
2022-10-18T03:48:36.882Z,62.32
2022-10-18T03:49:39.042Z,61.79
2022-10-18T03:50:40.964Z,61.57
2022-10-18T03:51:42.478Z,61.26
2022-10-18T03:52:43.990Z,61.09
2022-10-18T03:53:45.535Z,61.82
2022-10-18T03:54:47.040Z,61.50
2022-10-18T03:55:55.601Z,62.14
2022-10-18T03:56:57.620Z,62.68
2022-10-18T03:57:59.147Z,62.94
2022-10-18T03:59:00.725Z,63.04
2022-10-18T04:00:02.273Z,63.06
2022-10-18T04:01:03.827Z,62.94
2022-10-18T04:02:05.479Z,63.25
2022-10-18T04:03:06.984Z,62.86
2022-10-18T04:04:08.545Z,62.70
2022-10-18T04:05:10.177Z,63.64
2022-10-18T04:06:11.707Z,64.30
2022-10-18T04:07:13.511Z,64.48
2022-10-18T04:08:15.523Z,64.55
2022-10-18T04:09:17.415Z,64.85
2022-10-18T04:10:18.961Z,64.97
2022-10-18T04:11:20.476Z,64.38
2022-10-18T04:12:22.009Z,64.39
2022-10-18T04:13:23.574Z,65.17
2022-10-18T04:14:25.212Z,65.90
2022-10-18T04:15:26.827Z,65.88
2022-10-18T04:16:28.361Z,72.52
2022-10-18T04:17:30.283Z,69.31
2022-10-18T04:18:34.737Z,67.05
2022-10-18T04:19:36.569Z,67.00
2022-10-18T04:20:38.263Z,66.89
2022-10-18T04:21:39.959Z,66.98
2022-10-18T04:22:41.568Z,67.04
2022-10-18T04:23:43.131Z,66.95
2022-10-18T04:24:44.760Z,66.64
2022-10-18T04:25:46.330Z,65.90
2022-10-18T04:26:47.883Z,65.71
2022-10-18T04:27:49.521Z,65.90
2022-10-18T04:28:51.249Z,65.09
2022-10-18T04:29:52.839Z,65.08
2022-10-18T04:30:54.394Z,64.73
2022-10-18T04:31:55.937Z,64.70
2022-10-18T04:32:57.471Z,64.74
2022-10-18T04:33:59.010Z,64.69
2022-10-18T04:35:00.599Z,64.73
2022-10-18T04:36:02.303Z,65.30
2022-10-18T04:37:03.842Z,65.15
2022-10-18T04:38:05.426Z,65.32
2022-10-18T04:39:07.031Z,64.94
2022-10-18T04:40:09.445Z,65.37
2022-10-18T04:41:10.965Z,65.63
2022-10-18T04:42:12.491Z,65.48
2022-10-18T04:43:14.041Z,65.60
2022-10-18T04:44:15.708Z,65.17
2022-10-18T04:45:17.333Z,65.43
2022-10-18T04:46:18.852Z,65.46
2022-10-18T04:47:20.487Z,65.32
2022-10-18T04:48:22.054Z,65.24
2022-10-18T04:49:23.569Z,65.58
2022-10-18T04:50:25.090Z,65.59
2022-10-18T04:51:27.269Z,65.34
2022-10-18T04:52:28.777Z,65.09
2022-10-18T04:53:30.362Z,65.05
2022-10-18T04:54:31.940Z,65.06
2022-10-18T04:55:33.463Z,65.18
2022-10-18T04:56:35.032Z,64.99
2022-10-18T04:57:36.598Z,65.23
2022-10-18T04:58:38.151Z,65.69
2022-10-18T04:59:39.686Z,65.64
2022-10-18T05:00:42.187Z,65.49
2022-10-18T05:01:43.813Z,65.66
2022-10-18T05:02:45.457Z,65.06
2022-10-18T05:03:47.009Z,65.11
2022-10-18T05:04:48.581Z,64.80
2022-10-18T05:06:01.263Z,64.90
2022-10-18T05:07:03.155Z,65.50
2022-10-18T05:08:06.805Z,68.69
2022-10-18T05:09:08.318Z,68.08
2022-10-18T05:10:10.108Z,66.51
2022-10-18T05:11:11.830Z,65.86
2022-10-18T05:12:13.391Z,64.96
2022-10-18T05:13:15.097Z,64.28
2022-10-18T05:14:16.952Z,64.48
2022-10-18T05:15:18.558Z,64.96
2022-10-18T05:16:20.295Z,64.42
2022-10-18T05:17:22.015Z,64.50
2022-10-18T05:18:23.536Z,64.74
2022-10-18T05:19:25.139Z,64.62
2022-10-18T05:20:26.654Z,64.69
2022-10-18T05:21:28.198Z,65.11
2022-10-18T05:22:30.007Z,65.00
2022-10-18T05:23:31.693Z,65.78
2022-10-18T05:24:33.210Z,67.23
2022-10-18T05:25:34.718Z,67.75
2022-10-18T05:26:36.354Z,68.12
2022-10-18T05:27:37.875Z,68.90
2022-10-18T05:28:40.859Z,70.32
2022-10-18T05:29:42.992Z,70.93
2022-10-18T05:30:44.549Z,71.60
2022-10-18T05:31:46.084Z,70.77
2022-10-18T05:32:47.695Z,70.05
2022-10-18T05:33:49.180Z,69.85
2022-10-18T05:34:50.713Z,68.89
2022-10-18T05:35:52.257Z,69.29
2022-10-18T05:36:53.792Z,69.26
2022-10-18T05:37:55.286Z,68.99
2022-10-18T05:38:58.620Z,68.88
2022-10-18T05:40:02.646Z,68.50
2022-10-18T05:41:05.357Z,68.51
2022-10-18T05:42:06.943Z,68.28
2022-10-18T05:43:08.476Z,68.12
2022-10-18T05:44:09.981Z,67.67
2022-10-18T05:45:11.525Z,68.22
2022-10-18T05:46:15.337Z,68.43
2022-10-18T05:47:17.305Z,67.98
2022-10-18T05:48:19.071Z,67.71
2022-10-18T05:49:20.841Z,67.53
2022-10-18T05:50:22.407Z,67.16
2022-10-18T05:51:24.111Z,67.52
2022-10-18T05:52:25.639Z,67.17
2022-10-18T05:53:37.100Z,67.59
2022-10-18T05:54:40.488Z,67.22
2022-10-18T05:55:42.009Z,67.13
2022-10-18T05:56:43.549Z,67.17
2022-10-18T05:57:50.178Z,66.70
2022-10-18T05:58:52.205Z,66.75
2022-10-18T05:59:53.749Z,66.76
2022-10-18T06:00:59.151Z,66.74
2022-10-18T06:02:00.738Z,66.02
2022-10-18T06:03:02.273Z,66.87
2022-10-18T06:04:03.879Z,67.88
2022-10-18T06:05:05.573Z,67.76
2022-10-18T06:06:10.124Z,66.50
2022-10-18T06:07:12.474Z,66.48
2022-10-18T06:08:14.197Z,65.90
2022-10-18T06:09:15.761Z,65.81
2022-10-18T06:10:17.282Z,65.46
2022-10-18T06:11:20.338Z,65.10
2022-10-18T06:12:21.876Z,65.50
2022-10-18T06:13:23.587Z,63.79
2022-10-18T06:14:25.142Z,62.78
2022-10-18T06:15:26.721Z,62.44
2022-10-18T06:16:32.195Z,62.06
2022-10-18T06:17:34.456Z,61.18
2022-10-18T06:18:36.629Z,61.39
2022-10-18T06:19:38.138Z,60.27
2022-10-18T06:20:39.659Z,60.20
2022-10-18T06:21:41.546Z,59.42
2022-10-18T06:22:43.058Z,59.80
2022-10-18T06:23:51.831Z,59.57
2022-10-18T06:24:57.126Z,62.04
2022-10-18T06:26:04.107Z,58.95
2022-10-18T06:27:09.039Z,58.77
2022-10-18T06:28:12.281Z,57.13
2022-10-18T06:29:15.231Z,59.43
2022-10-18T06:30:17.056Z,58.30
2022-10-18T06:31:21.309Z,60.00
2022-10-18T06:32:22.873Z,61.63
2022-10-18T06:33:24.711Z,61.86
2022-10-18T06:34:26.322Z,60.63
2022-10-18T06:35:27.890Z,60.86
2022-10-18T06:36:29.403Z,59.61
2022-10-18T06:37:31.331Z,59.66
2022-10-18T06:38:34.359Z,60.20
2022-10-18T06:39:35.909Z,61.51
2022-10-18T06:40:38.224Z,61.78
2022-10-18T06:41:39.797Z,61.03
2022-10-18T06:42:41.393Z,60.35
2022-10-18T06:43:43.853Z,59.47
2022-10-18T06:44:45.433Z,58.39
2022-10-18T06:45:47.018Z,58.64
2022-10-18T06:46:49.336Z,57.82
2022-10-18T06:47:50.849Z,56.85
2022-10-18T06:48:52.372Z,57.68
2022-10-18T06:49:53.947Z,57.08
2022-10-18T06:51:00.573Z,57.11
2022-10-18T06:52:02.452Z,57.07
2022-10-18T06:53:06.229Z,55.93
2022-10-18T06:54:17.612Z,54.79
2022-10-18T06:55:19.856Z,55.36
2022-10-18T06:56:21.434Z,55.87
2022-10-18T06:57:22.987Z,55.87
2022-10-18T06:58:24.545Z,56.43
2022-10-18T06:59:28.885Z,57.03
2022-10-18T07:00:32.757Z,56.54
2022-10-18T07:01:34.400Z,55.00
2022-10-18T07:02:37.442Z,54.27
2022-10-18T07:03:39.696Z,55.06
2022-10-18T07:04:42.072Z,54.61
2022-10-18T07:05:43.711Z,53.83
2022-10-18T07:06:45.387Z,53.50
2022-10-18T07:07:46.898Z,52.53
2022-10-18T07:08:49.670Z,52.40
2022-10-18T07:09:51.224Z,52.33
2022-10-18T07:10:53.354Z,52.95
2022-10-18T07:11:54.935Z,53.44
2022-10-18T07:13:19.683Z,52.72
2022-10-18T07:14:17.933Z,51.37
2022-10-18T07:15:22.604Z,50.96
2022-10-18T07:16:24.201Z,51.37
2022-10-18T07:17:26.426Z,51.25
2022-10-18T07:18:28.037Z,50.42
2022-10-18T07:19:29.558Z,51.56
2022-10-18T07:20:31.106Z,52.46
2022-10-18T07:21:32.669Z,52.00
2022-10-18T07:22:34.223Z,50.94
2022-10-18T07:23:37.509Z,50.32
2022-10-18T07:24:39.397Z,49.97
2022-10-18T07:25:40.930Z,50.50
2022-10-18T07:26:42.676Z,50.47
2022-10-18T07:27:44.192Z,49.67
2022-10-18T07:28:48.914Z,50.52
2022-10-18T07:29:50.521Z,50.06
2022-10-18T07:30:52.107Z,49.62
2022-10-18T07:31:53.627Z,49.43
2022-10-18T07:32:55.143Z,49.98
2022-10-18T07:33:57.247Z,50.43
2022-10-18T07:34:58.781Z,50.17
2022-10-18T07:36:05.394Z,49.85
2022-10-18T07:37:06.916Z,49.51
2022-10-18T07:38:08.433Z,49.07
2022-10-18T07:39:10.071Z,49.17
2022-10-18T07:40:12.202Z,48.50
2022-10-18T07:41:15.025Z,48.15
2022-10-18T07:42:16.607Z,48.06
2022-10-18T07:43:18.125Z,47.02
2022-10-18T07:44:19.715Z,46.33
2022-10-18T07:45:21.261Z,46.67
2022-10-18T07:46:23.059Z,45.76
2022-10-18T07:47:24.587Z,46.43
2022-10-18T07:48:26.725Z,47.52
2022-10-18T07:49:28.226Z,47.38
2022-10-18T07:50:29.950Z,48.08
2022-10-18T07:51:32.891Z,47.46
2022-10-18T07:52:34.562Z,46.91
2022-10-18T07:53:36.095Z,47.52
2022-10-18T07:54:37.691Z,46.71
2022-10-18T07:55:39.587Z,47.32
2022-10-18T07:56:41.331Z,45.99
2022-10-18T07:57:42.891Z,46.08
2022-10-18T07:58:45.978Z,46.49
2022-10-18T07:59:48.334Z,45.19
2022-10-18T08:00:49.885Z,45.46
2022-10-18T08:01:51.496Z,45.38
2022-10-18T08:02:57.690Z,45.42
2022-10-18T08:04:06.138Z,47.16
2022-10-18T08:05:09.602Z,46.76
2022-10-18T08:06:13.367Z,46.97
2022-10-18T08:07:14.914Z,47.33
2022-10-18T08:08:16.698Z,59.19
2022-10-18T08:09:18.428Z,48.17
2022-10-18T08:10:21.352Z,47.60
2022-10-18T08:11:24.826Z,47.18
2022-10-18T08:12:26.358Z,47.42
2022-10-18T08:13:27.905Z,47.15
2022-10-18T08:14:29.725Z,48.45
2022-10-18T08:15:31.314Z,49.22
2022-10-18T08:17:34.830Z,49.73
2022-10-18T08:18:38.021Z,50.62
2022-10-18T08:19:48.230Z,49.42
2022-10-18T08:21:01.503Z,49.66
2022-10-18T08:22:03.084Z,49.89
2022-10-18T08:23:04.871Z,48.79
2022-10-18T08:24:06.450Z,49.99
2022-10-18T08:25:08.606Z,48.18
2022-10-18T08:26:12.934Z,48.80
2022-10-18T08:27:15.413Z,46.97
2022-10-18T08:28:17.513Z,46.58
2022-10-18T08:29:23.219Z,45.63
2022-10-18T08:30:26.493Z,44.38
2022-10-18T08:31:28.137Z,44.37
2022-10-18T08:32:33.404Z,43.57
2022-10-18T08:33:36.256Z,43.90
2022-10-18T08:35:40.295Z,42.79
2022-10-18T08:36:41.940Z,42.86
2022-10-18T08:37:45.329Z,42.90
2022-10-18T08:38:47.130Z,44.01
2022-10-18T08:39:48.714Z,44.27
2022-10-18T08:40:50.845Z,44.81
2022-10-18T08:42:01.492Z,44.02
2022-10-18T08:43:22.626Z,43.45
2022-10-18T08:44:26.117Z,43.34
2022-10-18T08:45:41.466Z,43.22
2022-10-18T08:46:58.951Z,42.54
2022-10-18T08:48:01.557Z,42.84
2022-10-18T08:49:05.561Z,43.08
2022-10-18T08:50:14.893Z,43.02
2022-10-18T08:51:45.540Z,42.86
2022-10-18T08:53:25.940Z,41.93
2022-10-18T08:54:37.465Z,42.23
2022-10-18T08:56:11.242Z,42.01
2022-10-18T08:57:15.764Z,41.97
2022-10-18T08:58:19.918Z,42.69
2022-10-18T08:59:24.744Z,40.75
2022-10-18T09:00:34.494Z,41.84
2022-10-18T09:01:36.217Z,41.20
2022-10-18T09:03:16.769Z,41.43
2022-10-18T09:04:33.499Z,42.06
2022-10-18T09:06:01.384Z,43.79
2022-10-18T09:07:26.131Z,43.18
2022-10-18T09:09:11.354Z,42.35
2022-10-18T09:10:33.901Z,43.83
2022-10-18T09:11:51.097Z,44.60
2022-10-18T09:13:19.085Z,43.35
2022-10-18T09:14:32.498Z,44.53
2022-10-18T09:15:45.529Z,44.10
2022-10-18T09:17:05.917Z,44.05
2022-10-18T09:18:23.466Z,42.28
2022-10-18T09:19:55.175Z,42.59
2022-10-18T09:21:05.484Z,42.79
2022-10-18T09:22:13.934Z,42.44
2022-10-18T09:23:21.140Z,42.38
2022-10-18T09:24:32.829Z,41.51
2022-10-18T09:25:34.355Z,41.58
2022-10-18T09:26:50.141Z,42.17
2022-10-18T09:28:27.174Z,41.82
2022-10-18T09:29:54.744Z,40.74
2022-10-18T09:31:17.898Z,40.73
2022-10-18T09:32:44.783Z,40.64
2022-10-18T09:34:04.663Z,41.57
2022-10-18T09:35:24.206Z,42.30
2022-10-18T09:36:35.391Z,41.48
2022-10-18T09:37:37.014Z,41.58
2022-10-18T09:38:51.561Z,41.19
2022-10-18T09:40:03.215Z,41.55
2022-10-18T09:41:12.268Z,41.48
2022-10-18T09:42:26.831Z,41.28
2022-10-18T09:44:12.639Z,42.94
2022-10-18T09:45:37.845Z,41.97
2022-10-18T09:46:47.926Z,41.39
2022-10-18T09:48:04.476Z,40.78
2022-10-18T09:49:40.392Z,40.58
2022-10-18T09:50:46.454Z,40.71
2022-10-18T09:51:50.228Z,40.52
2022-10-18T09:53:02.140Z,40.97
2022-10-18T09:54:12.838Z,41.06
2022-10-18T09:55:28.732Z,40.78
2022-10-18T09:56:39.450Z,43.03
2022-10-18T09:57:57.321Z,43.78
2022-10-18T09:58:58.985Z,40.97
2022-10-18T10:00:03.328Z,38.87
2022-10-18T10:01:05.288Z,38.82
2022-10-18T10:02:09.366Z,38.85
2022-10-18T10:03:14.931Z,38.62
2022-10-18T10:04:16.435Z,39.47
2022-10-18T10:05:18.948Z,39.94
2022-10-18T10:06:29.973Z,40.14
2022-10-18T10:07:41.557Z,40.53
2022-10-18T10:09:07.389Z,39.84
2022-10-18T10:10:25.680Z,39.84
2022-10-18T10:11:28.766Z,39.51
2022-10-18T10:12:39.385Z,40.17
2022-10-18T10:13:40.975Z,40.72
2022-10-18T10:14:45.355Z,40.33
2022-10-18T10:16:03.263Z,40.12
2022-10-18T10:17:34.938Z,39.98
2022-10-18T10:18:40.289Z,39.14
2022-10-18T10:19:57.424Z,38.60
2022-10-18T10:21:01.856Z,38.19
2022-10-18T10:22:10.457Z,37.78
2022-10-18T10:23:37.385Z,38.03
2022-10-18T10:24:44.671Z,38.14
2022-10-18T10:25:52.012Z,37.80
2022-10-18T10:27:00.289Z,38.27
2022-10-18T10:28:13.343Z,37.76
2022-10-18T10:29:45.524Z,38.44
2022-10-18T10:30:47.559Z,37.74
2022-10-18T10:32:02.421Z,37.25
2022-10-18T10:33:06.713Z,36.87
2022-10-18T10:34:14.482Z,35.46
2022-10-18T10:35:42.322Z,39.77
2022-10-18T10:36:54.680Z,36.91
2022-10-18T10:37:57.161Z,37.45
2022-10-18T10:39:18.977Z,37.58
2022-10-18T10:40:26.372Z,38.09
2022-10-18T10:42:59.997Z,37.84
2022-10-18T10:44:26.285Z,37.73
2022-10-18T10:45:41.286Z,38.06
2022-10-18T10:46:43.487Z,38.17
2022-10-18T10:47:45.073Z,37.31
2022-10-18T10:49:09.579Z,36.94
2022-10-18T10:50:28.313Z,37.26
2022-10-18T10:51:29.854Z,36.29
2022-10-18T10:52:31.635Z,35.97
2022-10-18T10:53:59.039Z,36.79
2022-10-18T10:55:30.459Z,37.19
2022-10-18T10:56:53.199Z,36.58
2022-10-18T10:57:56.346Z,36.55
2022-10-18T10:59:14.517Z,35.85
2022-10-18T11:00:39.121Z,36.37
2022-10-18T11:01:41.732Z,36.75
2022-10-18T11:02:54.277Z,37.82
2022-10-18T11:04:28.122Z,37.33
2022-10-18T11:05:29.673Z,37.00
2022-10-18T11:06:34.261Z,36.91
2022-10-18T11:07:43.290Z,37.61
2022-10-18T11:10:01.272Z,36.07
2022-10-18T11:11:27.716Z,36.44
2022-10-18T11:12:52.431Z,35.79
2022-10-18T11:14:21.115Z,36.12
2022-10-18T11:15:43.321Z,36.47
2022-10-18T11:17:08.061Z,36.50
2022-10-18T11:18:24.162Z,36.64
2022-10-18T11:19:39.349Z,36.94
2022-10-18T11:20:46.138Z,36.54
2022-10-18T11:21:47.834Z,36.78
2022-10-18T11:23:19.272Z,36.69
2022-10-18T11:24:24.942Z,36.17
2022-10-18T11:25:52.614Z,35.72
2022-10-18T11:27:02.161Z,36.00
2022-10-18T11:28:12.038Z,36.15
2022-10-18T11:29:39.991Z,35.60
2022-10-18T11:30:47.836Z,35.40
2022-10-18T11:31:49.333Z,35.87
2022-10-18T11:33:15.745Z,35.79
2022-10-18T11:34:32.781Z,35.80
2022-10-18T11:35:54.590Z,36.04
2022-10-18T11:37:23.044Z,36.90
2022-10-18T11:38:29.362Z,37.05
2022-10-18T11:39:57.459Z,37.23
2022-10-18T11:41:27.810Z,36.40
2022-10-18T11:42:47.826Z,36.49
2022-10-18T11:44:02.244Z,37.46
2022-10-18T11:45:10.729Z,37.78
2022-10-18T11:46:44.879Z,36.13
2022-10-18T11:48:04.696Z,36.49
2022-10-18T11:49:11.571Z,37.38
2022-10-18T11:50:26.597Z,36.79
2022-10-18T11:51:50.220Z,36.44
2022-10-18T11:52:55.878Z,36.15
2022-10-18T11:54:15.509Z,36.69
2022-10-18T11:55:38.516Z,36.73
2022-10-18T11:56:52.303Z,36.53
2022-10-18T11:58:40.540Z,36.02
2022-10-18T12:00:02.837Z,35.65
2022-10-18T12:01:28.916Z,36.37
2022-10-18T12:02:55.935Z,36.11
2022-10-18T12:04:03.279Z,36.72
2022-10-18T12:06:37.402Z,36.04
2022-10-18T12:07:58.430Z,35.46
2022-10-18T12:09:08.167Z,35.46
2022-10-18T12:10:22.079Z,35.37
2022-10-18T12:11:44.019Z,35.24
2022-10-18T12:12:58.408Z,35.03
2022-10-18T12:14:03.392Z,34.83
2022-10-18T12:15:16.208Z,35.13
2022-10-18T12:16:38.866Z,35.99
2022-10-18T12:17:52.618Z,35.76
2022-10-18T12:19:00.378Z,35.51
2022-10-18T12:20:11.360Z,35.75
2022-10-18T12:21:13.788Z,35.51
2022-10-18T12:22:28.333Z,35.54
2022-10-18T12:23:29.920Z,34.38
2022-10-18T12:24:33.113Z,33.92
2022-10-18T12:25:38.587Z,34.89
2022-10-18T12:26:40.369Z,35.11
2022-10-18T12:28:17.289Z,35.55
2022-10-18T12:29:35.355Z,35.13
2022-10-18T12:31:03.117Z,35.47
2022-10-18T12:32:16.609Z,34.09
2022-10-18T12:33:28.125Z,34.77
2022-10-18T12:34:36.486Z,35.33
2022-10-18T12:36:06.010Z,35.31
2022-10-18T12:37:35.405Z,34.96
2022-10-18T12:38:41.585Z,34.05
2022-10-18T12:40:12.463Z,34.18
2022-10-18T12:41:22.832Z,33.26
2022-10-18T12:42:30.894Z,34.78
2022-10-18T12:43:37.940Z,34.00
2022-10-18T12:44:40.226Z,34.70
2022-10-18T12:45:54.659Z,34.26
2022-10-18T12:46:58.750Z,34.78
2022-10-18T12:48:07.647Z,34.34
2022-10-18T12:49:11.713Z,34.92
2022-10-18T12:50:35.202Z,34.54
2022-10-18T12:51:50.789Z,33.89
2022-10-18T12:53:10.255Z,33.51
2022-10-18T12:54:12.851Z,34.74
2022-10-18T12:55:19.453Z,34.18
2022-10-18T12:56:30.784Z,33.48
2022-10-18T12:57:53.795Z,33.68
2022-10-18T12:59:17.131Z,34.16
2022-10-18T13:00:31.010Z,33.74
2022-10-18T13:01:50.692Z,33.22
2022-10-18T13:03:18.121Z,34.42
2022-10-18T13:04:28.834Z,33.34
2022-10-18T13:05:53.515Z,34.53
2022-10-18T13:07:05.221Z,33.71
2022-10-18T13:08:31.690Z,33.94
2022-10-18T13:10:02.936Z,33.93
2022-10-18T13:11:10.509Z,34.25
2022-10-18T13:12:14.677Z,33.58
2022-10-18T13:13:40.525Z,33.08
2022-10-18T13:15:12.642Z,33.31
2022-10-18T13:16:22.768Z,32.87
2022-10-18T13:17:36.459Z,32.86
2022-10-18T13:18:52.267Z,33.72
2022-10-18T13:20:24.691Z,33.22
2022-10-18T13:21:58.501Z,33.34
2022-10-18T13:23:00.035Z,33.25
2022-10-18T13:24:14.843Z,32.84
2022-10-18T13:25:29.347Z,36.36
2022-10-18T13:26:58.149Z,33.83
2022-10-18T13:28:35.925Z,34.16
2022-10-18T13:30:00.869Z,33.64
2022-10-18T13:31:24.161Z,33.45
2022-10-18T13:32:44.387Z,32.75
2022-10-18T13:33:46.052Z,33.26
2022-10-18T13:34:47.692Z,32.81
2022-10-18T13:36:07.797Z,31.73
2022-10-18T13:37:09.271Z,32.28
2022-10-18T13:38:34.587Z,31.80
2022-10-18T13:39:38.234Z,32.43
2022-10-18T13:40:40.061Z,33.19
2022-10-18T13:41:47.686Z,33.19
2022-10-18T13:42:49.275Z,32.31
2022-10-18T13:43:53.592Z,32.26
2022-10-18T13:44:55.159Z,31.68
2022-10-18T13:45:56.777Z,32.44
2022-10-18T13:46:58.346Z,32.32
2022-10-18T13:48:30.882Z,32.34
2022-10-18T13:49:38.586Z,31.69
2022-10-18T13:50:43.454Z,31.46
2022-10-18T13:51:57.882Z,32.75
2022-10-18T13:53:02.385Z,32.42
2022-10-18T13:54:21.945Z,32.40
2022-10-18T13:55:23.530Z,32.42
2022-10-18T13:56:45.304Z,32.42
2022-10-18T13:58:11.708Z,32.30
2022-10-18T13:59:20.905Z,31.57
2022-10-18T14:00:49.127Z,31.94
2022-10-18T14:02:10.000Z,32.11
2022-10-18T14:03:57.526Z,31.61
2022-10-18T14:05:25.051Z,30.71
2022-10-18T14:06:37.255Z,31.37
2022-10-18T14:07:40.666Z,31.56
2022-10-18T14:08:44.708Z,31.59
2022-10-18T14:09:55.635Z,31.85
2022-10-18T14:11:03.289Z,31.61
2022-10-18T14:12:22.949Z,31.60
2022-10-18T14:13:28.845Z,30.41
2022-10-18T14:14:50.369Z,30.80
2022-10-18T14:15:56.066Z,31.29
2022-10-18T14:17:07.390Z,31.00
2022-10-18T14:18:17.410Z,31.24
2022-10-18T14:19:50.832Z,30.63
2022-10-18T14:21:12.768Z,31.21
2022-10-18T14:22:24.986Z,30.90
2022-10-18T14:23:31.645Z,30.88
2022-10-18T14:24:34.221Z,30.83
2022-10-18T14:25:37.924Z,30.74
2022-10-18T14:27:48.693Z,30.99
2022-10-18T14:29:16.021Z,30.72
2022-10-18T14:30:20.228Z,30.49
2022-10-18T14:31:21.764Z,30.24
2022-10-18T14:32:27.778Z,30.60
2022-10-18T14:33:37.060Z,30.83
2022-10-18T14:34:38.776Z,30.40
2022-10-18T14:35:41.354Z,30.37
2022-10-18T14:36:47.715Z,30.05
2022-10-18T14:37:54.304Z,29.66
2022-10-18T14:39:00.792Z,29.51
2022-10-18T14:40:04.296Z,29.86
2022-10-18T14:41:23.595Z,28.96
2022-10-18T14:42:27.608Z,29.49